Time;durP1;ratioP1;P1;durP2;ratioP2;P2;SDS_P1;SDS_P2;PMS_P1;PMS_P2;Temp;Humidity;BMP_temperature;BMP_pressure;BME280_temperature;BME280_humidity;BME280_pressure;Samples;Min_cycle;Max_cycle;Signal;HPM_P1;HPM_P2
2021/07/18 00:01:06;;;;;;;11.68;6.13;;;16.40;99.90;;;;;;5074393;28;20020;-72
2021/07/18 00:03:33;;;;;;;13.00;5.90;;;16.40;99.90;;;;;;5072575;28;20401;-72
2021/07/18 00:05:58;;;;;;;10.07;6.30;;;16.40;99.90;;;;;;5074030;28;20021;-73
2021/07/18 00:08:24;;;;;;;12.98;6.22;;;16.40;99.90;;;;;;5072837;28;20034;-72
2021/07/18 00:10:51;;;;;;;8.98;5.65;;;16.40;99.90;;;;;;5073701;28;20020;-72
2021/07/18 00:13:19;;;;;;;8.80;6.03;;;16.40;99.90;;;;;;5073970;28;20530;-73
2021/07/18 00:15:45;;;;;;;11.23;6.10;;;16.40;99.90;;;;;;5073893;28;20038;-73
2021/07/18 00:18:11;;;;;;;10.18;6.30;;;16.40;99.90;;;;;;5072635;28;20091;-73
2021/07/18 00:20:36;;;;;;;9.65;6.55;;;16.40;99.90;;;;;;5074117;28;20062;-72
2021/07/18 00:23:02;;;;;;;12.93;6.10;;;16.40;99.90;;;;;;5074105;28;20393;-73
2021/07/18 00:25:28;;;;;;;9.88;6.32;;;16.40;99.90;;;;;;5073806;28;20025;-72
2021/07/18 00:27:53;;;;;;;10.40;6.85;;;16.30;99.90;;;;;;5074056;28;20028;-72
2021/07/18 00:30:19;;;;;;;11.13;6.68;;;16.20;99.90;;;;;;5074026;28;20039;-72
2021/07/18 00:32:44;;;;;;;8.93;6.00;;;16.30;99.90;;;;;;5072006;28;20086;-72
2021/07/18 00:35:10;;;;;;;11.70;5.93;;;16.40;99.90;;;;;;5073770;28;20036;-72
2021/07/18 00:37:36;;;;;;;11.98;6.32;;;16.20;99.90;;;;;;5073611;28;20066;-71
2021/07/18 00:40:05;;;;;;;10.98;7.03;;;16.10;99.90;;;;;;5072131;28;20025;-71
2021/07/18 00:42:30;;;;;;;16.45;7.60;;;16.20;99.90;;;;;;5073598;28;20021;-71
2021/07/18 00:44:56;;;;;;;9.65;6.45;;;16.10;99.90;;;;;;5073630;28;20477;-71
2021/07/18 00:47:22;;;;;;;11.68;6.82;;;16.10;99.90;;;;;;5073561;28;20028;-71
2021/07/18 00:49:48;;;;;;;11.43;6.55;;;16.10;99.90;;;;;;5073811;28;20416;-71
2021/07/18 00:52:14;;;;;;;10.25;7.03;;;16.00;99.90;;;;;;5072382;28;20029;-71
2021/07/18 00:54:39;;;;;;;16.52;8.38;;;15.90;99.90;;;;;;5072035;28;20078;-71
2021/07/18 00:57:06;;;;;;;13.13;7.80;;;16.00;99.90;;;;;;5072498;28;20044;-71
2021/07/18 00:59:32;;;;;;;12.55;7.35;;;15.90;99.90;;;;;;5073715;28;20017;-73
2021/07/18 01:01:58;;;;;;;16.90;8.57;;;15.80;99.90;;;;;;5073449;28;20035;-71
2021/07/18 01:04:24;;;;;;;12.40;7.65;;;15.70;99.90;;;;;;5055315;28;20024;-71
2021/07/18 01:06:49;;;;;;;12.80;8.48;;;15.60;99.90;;;;;;5072289;28;20031;-74
2021/07/18 01:09:15;;;;;;;12.70;7.55;;;15.60;99.90;;;;;;5055081;28;20027;-72
2021/07/18 01:11:41;;;;;;;15.77;8.20;;;15.50;99.90;;;;;;5071898;28;20025;-73
2021/07/18 01:14:07;;;;;;;16.25;9.32;;;15.50;99.90;;;;;;5071981;28;20082;-73
2021/07/18 01:16:33;;;;;;;17.83;8.27;;;15.50;99.90;;;;;;5073278;28;20047;-73
2021/07/18 01:18:58;;;;;;;13.40;8.32;;;15.40;99.90;;;;;;5073564;28;20068;-73
2021/07/18 01:21:24;;;;;;;15.57;7.72;;;15.40;99.90;;;;;;5072350;28;20033;-73
2021/07/18 01:23:52;;;;;;;17.25;8.70;;;15.30;99.90;;;;;;5073231;28;20016;-73
2021/07/18 01:26:18;;;;;;;12.52;7.65;;;15.30;99.90;;;;;;5073466;28;20359;-73
2021/07/18 01:28:45;;;;;;;13.63;8.82;;;15.20;99.90;;;;;;5073209;28;20035;-73
2021/07/18 01:31:11;;;;;;;12.07;7.70;;;15.20;99.90;;;;;;5073427;28;20044;-73
2021/07/18 01:33:36;;;;;;;14.63;8.90;;;15.10;99.90;;;;;;5073564;28;20094;-73
2021/07/18 01:36:02;;;;;;;16.02;8.98;;;15.00;99.90;;;;;;5074237;28;20024;-73
2021/07/18 01:38:27;;;;;;;16.83;9.40;;;15.10;99.90;;;;;;5072675;28;20052;-73
2021/07/18 01:40:53;;;;;;;15.95;9.50;;;15.00;99.90;;;;;;5071969;28;20032;-73
2021/07/18 01:43:19;;;;;;;13.07;8.57;;;15.00;99.90;;;;;;5072767;28;20052;-73
2021/07/18 01:45:44;;;;;;;15.60;8.60;;;15.00;99.90;;;;;;5075746;28;20103;-73
2021/07/18 01:48:10;;;;;;;14.15;9.05;;;14.90;99.90;;;;;;5075472;28;20032;-73
2021/07/18 01:50:36;;;;;;;16.33;9.35;;;14.90;99.90;;;;;;5075609;28;20025;-73
2021/07/18 01:53:04;;;;;;;12.32;8.15;;;14.90;99.90;;;;;;5076227;28;20023;-73
2021/07/18 01:55:29;;;;;;;16.10;9.02;;;14.80;99.90;;;;;;5077788;28;20024;-73
2021/07/18 01:57:55;;;;;;;14.02;8.10;;;14.80;99.90;;;;;;5076723;28;20035;-73
2021/07/18 02:00:21;;;;;;;14.73;8.95;;;14.80;99.90;;;;;;5058450;28;20063;-73
2021/07/18 02:02:48;;;;;;;17.23;9.32;;;14.70;99.90;;;;;;5074949;28;20111;-73
2021/07/18 02:05:15;;;;;;;13.15;7.93;;;14.70;99.90;;;;;;5076580;28;20017;-73
2021/07/18 02:07:43;;;;;;;14.45;8.00;;;14.70;99.90;;;;;;5075094;28;20029;-73
2021/07/18 02:10:09;;;;;;;14.50;7.30;;;14.60;99.90;;;;;;5076511;28;20028;-73
2021/07/18 02:12:36;;;;;;;11.27;7.53;;;14.60;99.90;;;;;;5076624;28;20048;-73
2021/07/18 02:15:05;;;;;;;14.63;8.10;;;14.60;99.90;;;;;;5076456;28;20020;-73
2021/07/18 02:17:31;;;;;;;11.80;8.00;;;14.60;99.90;;;;;;5076282;28;20125;-73
2021/07/18 02:19:56;;;;;;;12.70;8.07;;;14.60;99.90;;;;;;5076320;28;20059;-73
2021/07/18 02:22:31;;;;;;;14.95;8.70;;;14.60;99.90;;;;;;5076295;28;20450;-72
2021/07/18 02:24:56;;;;;;;16.88;8.75;;;14.60;99.90;;;;;;5074438;28;20023;-73
2021/07/18 02:27:22;;;;;;;19.25;9.98;;;14.60;99.90;;;;;;5074414;28;20021;-73
2021/07/18 02:29:48;;;;;;;16.77;8.98;;;14.60;99.90;;;;;;5076158;28;20029;-73
2021/07/18 02:32:13;;;;;;;19.55;10.23;;;14.50;99.90;;;;;;5074938;28;20020;-73
2021/07/18 02:34:39;;;;;;;18.92;9.82;;;14.50;99.90;;;;;;5075763;28;20028;-73
2021/07/18 02:37:04;;;;;;;14.02;9.98;;;14.50;99.90;;;;;;5075177;28;20044;-73
2021/07/18 02:39:30;;;;;;;16.70;10.32;;;14.50;99.90;;;;;;5075953;28;20025;-73
2021/07/18 02:41:55;;;;;;;16.17;10.13;;;14.50;99.90;;;;;;5075645;28;20029;-73
2021/07/18 02:44:21;;;;;;;19.80;11.85;;;14.50;99.90;;;;;;5075600;28;20034;-73
2021/07/18 02:46:46;;;;;;;17.25;11.68;;;14.40;99.90;;;;;;5074378;28;20464;-73
2021/07/18 02:49:12;;;;;;;15.98;11.02;;;14.40;99.90;;;;;;5075517;28;20021;-73
2021/07/18 02:51:37;;;;;;;19.60;11.45;;;14.40;99.90;;;;;;5075744;28;20446;-73
2021/07/18 02:54:03;;;;;;;24.55;11.35;;;14.40;99.90;;;;;;5075661;28;20572;-73
2021/07/18 02:56:29;;;;;;;16.50;10.07;;;14.40;99.90;;;;;;5075055;28;20021;-73
2021/07/18 02:58:54;;;;;;;16.00;10.27;;;14.40;99.90;;;;;;5074332;28;20462;-73
2021/07/18 03:01:20;;;;;;;16.40;10.20;;;14.40;99.90;;;;;;5075051;28;20064;-73
2021/07/18 03:03:46;;;;;;;19.00;11.35;;;14.30;99.90;;;;;;5075195;28;20028;-72
2021/07/18 03:06:11;;;;;;;25.95;12.23;;;14.30;99.90;;;;;;5073605;28;20020;-72
2021/07/18 03:08:38;;;;;;;18.92;10.90;;;14.30;99.90;;;;;;5075247;28;20036;-73
2021/07/18 03:11:04;;;;;;;17.90;11.02;;;14.30;99.90;;;;;;5075422;28;20043;-72
2021/07/18 03:13:29;;;;;;;18.27;10.05;;;14.30;99.90;;;;;;5075335;28;20434;-73
2021/07/18 03:15:55;;;;;;;21.33;11.43;;;14.30;99.90;;;;;;5075201;28;20426;-73
2021/07/18 03:18:20;;;;;;;22.45;12.30;;;14.30;99.90;;;;;;5075085;28;20039;-72
2021/07/18 03:20:46;;;;;;;22.52;13.27;;;14.30;99.90;;;;;;5075465;28;20048;-73
2021/07/18 03:23:11;;;;;;;23.02;16.35;;;14.30;99.90;;;;;;5074853;28;20434;-73
2021/07/18 03:25:37;;;;;;;23.77;18.05;;;14.30;99.90;;;;;;5075048;28;20082;-72
2021/07/18 03:28:03;;;;;;;26.73;18.55;;;14.30;99.90;;;;;;5074957;28;20070;-73
2021/07/18 03:30:28;;;;;;;26.45;17.98;;;14.30;99.90;;;;;;5074972;28;20428;-73
2021/07/18 03:32:54;;;;;;;25.52;16.83;;;14.30;99.90;;;;;;5074930;28;20031;-73
2021/07/18 03:35:20;;;;;;;29.17;18.20;;;14.30;99.90;;;;;;5074797;28;20104;-73
2021/07/18 03:37:45;;;;;;;29.25;17.30;;;14.30;99.90;;;;;;5074263;28;20084;-72
2021/07/18 03:40:14;;;;;;;25.20;17.60;;;14.30;99.90;;;;;;5074471;28;20428;-72
2021/07/18 03:42:39;;;;;;;27.27;17.70;;;14.30;99.90;;;;;;5073319;28;20473;-73
2021/07/18 03:45:06;;;;;;;29.27;20.98;;;14.30;99.90;;;;;;5074367;28;20032;-73
2021/07/18 03:47:32;;;;;;;28.85;20.67;;;14.30;99.90;;;;;;5073126;28;20501;-72
2021/07/18 03:49:57;;;;;;;28.52;20.17;;;14.30;99.90;;;;;;5074560;28;20028;-72
2021/07/18 03:52:23;;;;;;;29.60;20.80;;;14.30;99.90;;;;;;5073993;28;20113;-73
2021/07/18 03:54:48;;;;;;;27.55;21.67;;;14.30;99.90;;;;;;5074486;28;20078;-72
2021/07/18 03:57:14;;;;;;;32.17;23.20;;;14.30;99.90;;;;;;5074348;28;20186;-73
2021/07/18 03:59:39;;;;;;;31.75;23.73;;;14.30;99.90;;;;;;5072621;28;20028;-73
2021/07/18 04:02:05;;;;;;;33.10;22.90;;;14.40;99.90;;;;;;5074354;28;20086;-73
2021/07/18 04:04:33;;;;;;;27.27;19.60;;;14.40;99.90;;;;;;5074375;28;20024;-73
2021/07/18 04:07:00;;;;;;;27.50;20.80;;;14.50;99.90;;;;;;5072616;28;20480;-73
2021/07/18 04:09:25;;;;;;;26.58;19.83;;;14.50;99.90;;;;;;5074209;28;20027;-73
2021/07/18 04:11:51;;;;;;;25.98;18.02;;;14.50;99.90;;;;;;5074258;28;20024;-73
2021/07/18 04:14:16;;;;;;;24.75;18.90;;;14.60;99.90;;;;;;5072417;28;20024;-73
2021/07/18 04:16:42;;;;;;;29.75;18.35;;;14.60;99.90;;;;;;5074159;28;20021;-73
2021/07/18 04:19:07;;;;;;;24.73;16.42;;;14.60;99.90;;;;;;5072347;28;20051;-73
2021/07/18 04:21:33;;;;;;;21.23;14.45;;;14.60;99.90;;;;;;5074126;28;20021;-73
2021/07/18 04:23:59;;;;;;;20.88;13.73;;;14.80;99.90;;;;;;5074094;28;20025;-73
2021/07/18 04:26:24;;;;;;;21.67;13.05;;;14.90;99.90;;;;;;5073856;28;20013;-73
2021/07/18 04:28:50;;;;;;;21.20;12.65;;;15.00;99.90;;;;;;5072273;28;20024;-73
2021/07/18 04:31:15;;;;;;;14.90;11.35;;;15.20;99.90;;;;;;5073750;28;20024;-72
2021/07/18 04:33:43;;;;;;;26.98;11.68;;;15.30;99.90;;;;;;5073987;28;20029;-73
2021/07/18 04:36:08;;;;;;;17.27;10.38;;;15.40;99.90;;;;;;5073719;28;20031;-73
2021/07/18 04:38:35;;;;;;;16.90;10.88;;;15.60;99.90;;;;;;5072046;28;20052;-73
2021/07/18 04:41:01;;;;;;;16.10;9.35;;;15.80;99.90;;;;;;5073927;28;20458;-73
2021/07/18 04:43:26;;;;;;;12.52;8.40;;;16.20;99.90;;;;;;5073628;28;20036;-73
2021/07/18 04:45:52;;;;;;;15.48;8.23;;;16.70;99.90;;;;;;5073319;28;20029;-73
2021/07/18 04:48:17;;;;;;;12.07;7.50;;;17.30;99.90;;;;;;5073847;28;20033;-72
2021/07/18 04:50:44;;;;;;;9.65;7.18;;;17.70;99.90;;;;;;5073272;28;20071;-73
2021/07/18 04:53:10;;;;;;;10.45;7.00;;;18.00;99.90;;;;;;5073808;28;20021;-73
2021/07/18 04:55:35;;;;;;;10.00;6.40;;;18.20;99.90;;;;;;5073253;28;20035;-73
2021/07/18 04:58:01;;;;;;;11.23;6.70;;;18.40;99.90;;;;;;5073427;28;20029;-72
2021/07/18 05:00:26;;;;;;;7.78;5.88;;;18.90;99.90;;;;;;5073738;28;20347;-73
2021/07/18 05:02:52;;;;;;;9.75;6.45;;;19.40;99.90;;;;;;5073742;28;20374;-73
2021/07/18 05:05:18;;;;;;;9.15;5.78;;;19.40;99.90;;;;;;5072291;28;20381;-73
2021/07/18 05:07:59;;;;;;;11.15;7.22;;;19.40;99.90;;;;;;5073675;28;20024;-73
2021/07/18 05:10:27;;;;;;;13.45;7.70;;;19.60;99.90;;;;;;5073647;28;20036;-72
2021/07/18 05:12:54;;;;;;;14.77;8.02;;;19.90;99.90;;;;;;5073589;28;20104;-73
2021/07/18 05:15:21;;;;;;;12.07;7.03;;;20.10;99.90;;;;;;5073606;28;20431;-73
2021/07/18 05:17:47;;;;;;;10.05;7.55;;;20.40;99.90;;;;;;5073509;28;20024;-73
2021/07/18 05:20:15;;;;;;;9.77;7.10;;;20.10;99.90;;;;;;5074755;28;20017;-73
2021/07/18 05:22:40;;;;;;;10.48;7.10;;;19.80;99.90;;;;;;5077115;28;20017;-73
2021/07/18 05:25:09;;;;;;;10.85;7.18;;;19.80;99.90;;;;;;5075816;28;20107;-73
2021/07/18 05:27:36;;;;;;;9.32;7.57;;;19.90;99.90;;;;;;5077278;28;20031;-73
2021/07/18 05:30:03;;;;;;;10.05;6.07;;;20.10;99.90;;;;;;5077229;28;20021;-73
2021/07/18 05:32:29;;;;;;;8.70;6.45;;;20.50;99.90;;;;;;5076057;28;20028;-73
2021/07/18 05:34:55;;;;;;;10.98;6.72;;;21.10;99.90;;;;;;5077117;28;20024;-74
2021/07/18 05:37:20;;;;;;;12.43;6.68;;;21.30;99.90;;;;;;5076604;28;20044;-74
2021/07/18 05:39:46;;;;;;;8.07;5.35;;;21.80;99.90;;;;;;5075224;28;20520;-74
2021/07/18 05:42:12;;;;;;;11.48;6.10;;;22.30;99.90;;;;;;5076744;28;20374;-74
2021/07/18 05:44:38;;;;;;;10.15;5.93;;;22.10;99.90;;;;;;5076701;28;20092;-74
2021/07/18 05:47:04;;;;;;;8.25;5.88;;;22.30;99.90;;;;;;5075795;28;20514;-74
2021/07/18 05:49:29;;;;;;;11.02;6.50;;;22.00;99.90;;;;;;5076911;28;20488;-73
2021/07/18 05:51:55;;;;;;;8.63;5.35;;;22.50;99.90;;;;;;5076815;28;20466;-75
2021/07/18 05:54:21;;;;;;;8.25;6.50;;;22.40;99.90;;;;;;5076816;28;20462;-74
2021/07/18 05:56:46;;;;;;;8.15;5.80;;;22.00;99.90;;;;;;5076532;28;20024;-74
2021/07/18 05:59:12;;;;;;;8.13;6.15;;;22.50;99.90;;;;;;5076128;28;20043;-74
2021/07/18 06:01:37;;;;;;;10.27;5.88;;;22.50;99.90;;;;;;5076116;28;20074;-74
2021/07/18 06:04:03;;;;;;;8.63;5.25;;;22.30;99.90;;;;;;5076611;28;20024;-75
2021/07/18 06:06:29;;;;;;;11.60;5.80;;;23.10;99.90;;;;;;5076617;28;20032;-75
2021/07/18 06:08:54;;;;;;;7.88;5.70;;;23.70;99.90;;;;;;5076579;28;20347;-75
2021/07/18 06:11:22;;;;;;;7.63;5.53;;;23.90;99.90;;;;;;5076522;28;20082;-75
2021/07/18 06:13:48;;;;;;;7.18;5.70;;;24.00;99.90;;;;;;5075036;28;20124;-75
2021/07/18 06:16:14;;;;;;;9.43;5.57;;;24.40;99.90;;;;;;5074602;28;20028;-75
2021/07/18 06:18:39;;;;;;;7.80;5.05;;;24.90;99.90;;;;;;5074453;28;20049;-73
2021/07/18 06:21:05;;;;;;;9.23;5.10;;;24.70;99.90;;;;;;5076328;28;20023;-75
2021/07/18 06:23:30;;;;;;;6.93;4.35;;;24.50;99.90;;;;;;5076004;28;20044;-75
2021/07/18 06:25:56;;;;;;;9.13;5.30;;;24.90;99.90;;;;;;5074840;28;20373;-75
2021/07/18 06:28:21;;;;;;;6.35;5.03;;;25.30;99.90;;;;;;5074416;28;20449;-75
2021/07/18 06:30:47;;;;;;;6.30;4.28;;;25.10;99.90;;;;;;5075838;28;20108;-74
2021/07/18 06:33:12;;;;;;;9.23;4.75;;;25.10;99.90;;;;;;5075862;28;20358;-75
2021/07/18 06:35:38;;;;;;;7.20;4.82;;;25.10;99.90;;;;;;5076020;28;20420;-75
2021/07/18 06:38:04;;;;;;;6.65;4.85;;;25.60;99.90;;;;;;5075372;28;20048;-75
2021/07/18 06:40:31;;;;;;;7.95;4.20;;;25.30;99.90;;;;;;5074196;28;20103;-75
2021/07/18 06:42:56;;;;;;;6.85;4.50;;;25.60;99.90;;;;;;5075924;28;20013;-75
2021/07/18 06:45:22;;;;;;;8.02;4.30;;;25.70;99.90;;;;;;5074830;28;20382;-75
2021/07/18 06:47:47;;;;;;;8.10;4.82;;;25.50;99.90;;;;;;5075854;28;20028;-75
2021/07/18 06:50:14;;;;;;;8.20;4.70;;;25.80;99.90;;;;;;5075483;28;20039;-75
2021/07/18 06:52:40;;;;;;;6.07;3.50;;;26.40;99.90;;;;;;5075198;28;20025;-75
2021/07/18 06:55:07;;;;;;;8.60;3.65;;;26.60;99.90;;;;;;5073898;28;20032;-75
2021/07/18 06:57:32;;;;;;;4.68;3.60;;;26.90;99.90;;;;;;5074138;28;20051;-75
2021/07/18 06:59:58;;;;;;;8.02;3.67;;;26.60;99.90;;;;;;5074052;28;20098;-75
2021/07/18 07:02:23;;;;;;;5.65;3.50;;;26.40;99.90;;;;;;5074548;28;20530;-75
2021/07/18 07:04:49;;;;;;;5.70;3.38;;;26.60;99.90;;;;;;5075497;28;20032;-76
2021/07/18 07:07:14;;;;;;;5.45;3.33;;;26.90;99.90;;;;;;5075145;28;20085;-76
2021/07/18 07:09:40;;;;;;;4.65;3.17;;;27.20;99.90;;;;;;5075135;28;20056;-76
2021/07/18 07:12:06;;;;;;;4.90;3.20;;;27.30;99.90;;;;;;5073861;28;20032;-75
2021/07/18 07:14:32;;;;;;;6.65;3.25;;;27.30;99.90;;;;;;5073481;28;20405;-76
2021/07/18 07:16:57;;;;;;;3.50;2.80;;;27.00;99.90;;;;;;5074926;28;20030;-76
2021/07/18 07:19:23;;;;;;;5.63;3.35;;;27.40;99.90;;;;;;5073353;28;20470;-76
2021/07/18 07:21:48;;;;;;;5.78;3.47;;;27.30;99.90;;;;;;5074572;28;20055;-76
2021/07/18 07:24:14;;;;;;;4.97;2.88;;;27.50;99.90;;;;;;5075094;28;20095;-76
2021/07/18 07:26:40;;;;;;;4.13;2.90;;;27.50;99.90;;;;;;5075051;28;20044;-76
2021/07/18 07:29:06;;;;;;;5.35;2.75;;;27.80;99.90;;;;;;5074972;28;20033;-76
2021/07/18 07:31:31;;;;;;;5.97;2.40;;;27.30;99.90;;;;;;5074898;28;20067;-76
2021/07/18 07:33:57;;;;;;;4.05;2.58;;;27.00;99.90;;;;;;5056949;28;20446;-76
2021/07/18 07:36:23;;;;;;;5.10;2.80;;;27.30;99.90;;;;;;5074618;28;20104;-76
2021/07/18 07:38:48;;;;;;;4.32;2.45;;;27.20;99.90;;;;;;5074724;28;20024;-75
2021/07/18 07:41:14;;;;;;;4.40;2.53;;;28.00;99.90;;;;;;5074729;28;20513;-76
2021/07/18 07:43:40;;;;;;;4.95;2.53;;;28.40;99.90;;;;;;5073450;28;20021;-76
2021/07/18 07:46:05;;;;;;;3.47;2.58;;;28.00;99.90;;;;;;5074098;28;20028;-76
2021/07/18 07:48:31;;;;;;;4.35;2.38;;;28.40;99.90;;;;;;5074005;28;20032;-76
2021/07/18 07:50:57;;;;;;;3.42;2.33;;;28.30;99.90;;;;;;5074573;28;20024;-76
2021/07/18 07:53:24;;;;;;;5.63;2.78;;;28.50;99.90;;;;;;5074506;28;20473;-76
2021/07/18 07:55:50;;;;;;;4.60;2.85;;;27.60;99.90;;;;;;5074225;28;20021;-76
2021/07/18 07:58:15;;;;;;;3.35;2.25;;;27.70;99.90;;;;;;5074155;28;20046;-76
2021/07/18 08:00:42;;;;;;;5.90;2.80;;;28.40;99.90;;;;;;5072650;28;20525;-76
2021/07/18 08:03:09;;;;;;;4.85;2.40;;;27.80;99.90;;;;;;5074395;28;20103;-76
2021/07/18 08:05:35;;;;;;;4.15;2.50;;;28.30;99.90;;;;;;5074059;28;20410;-76
2021/07/18 08:08:00;;;;;;;4.97;2.40;;;28.40;99.90;;;;;;5074330;28;20489;-76
2021/07/18 08:10:27;;;;;;;4.25;2.50;;;28.40;99.90;;;;;;5072441;28;20032;-76
2021/07/18 08:12:53;;;;;;;5.63;2.47;;;28.20;99.90;;;;;;5073712;28;20025;-76
2021/07/18 08:15:20;;;;;;;3.70;2.47;;;28.10;99.90;;;;;;5072793;28;20029;-76
2021/07/18 08:17:45;;;;;;;5.53;2.50;;;27.70;99.90;;;;;;5074359;28;20377;-76
2021/07/18 08:20:14;;;;;;;3.35;2.47;;;28.10;99.90;;;;;;5074146;28;20028;-76
2021/07/18 08:22:40;;;;;;;4.97;2.55;;;28.40;99.90;;;;;;5073873;28;20048;-76
2021/07/18 08:25:07;;;;;;;5.13;2.50;;;29.20;99.90;;;;;;5072544;28;20587;-76
2021/07/18 08:27:33;;;;;;;7.10;2.47;;;29.70;99.90;;;;;;5072864;28;20039;-76
2021/07/18 08:29:59;;;;;;;4.53;2.33;;;28.50;99.90;;;;;;5073524;28;20028;-76
2021/07/18 08:32:24;;;;;;;3.35;2.08;;;28.30;99.90;;;;;;5055516;28;20499;-76
2021/07/18 08:34:50;;;;;;;4.40;2.42;;;28.90;99.90;;;;;;5073701;28;20025;-77
2021/07/18 08:37:15;;;;;;;3.65;2.17;;;29.00;99.90;;;;;;5073294;28;20048;-77
2021/07/18 08:39:41;;;;;;;5.15;2.10;;;28.80;99.90;;;;;;5073387;28;20031;-77
2021/07/18 08:42:07;;;;;;;5.45;2.50;;;29.30;99.90;;;;;;5073365;28;20070;-76
2021/07/18 08:44:34;;;;;;;3.83;2.60;;;28.00;99.90;;;;;;5073636;28;20464;-77
2021/07/18 08:47:00;;;;;;;3.30;2.15;;;27.40;99.90;;;;;;5072114;28;20023;-76
2021/07/18 08:49:26;;;;;;;5.88;2.50;;;28.30;99.90;;;;;;5073828;28;20047;-76
2021/07/18 08:51:52;;;;;;;2.88;2.22;;;27.40;99.90;;;;;;5073846;28;20037;-76
2021/07/18 08:54:19;;;;;;;4.95;2.25;;;27.60;99.90;;;;;;5075584;28;20016;-77
2021/07/18 08:56:47;;;;;;;4.95;1.80;;;28.50;99.90;;;;;;5077936;28;20107;-76
2021/07/18 08:59:13;;;;;;;2.78;1.88;;;29.20;99.90;;;;;;5077310;28;20047;-76
2021/07/18 09:01:41;;;;;;;3.95;2.03;;;29.90;99.90;;;;;;5077196;28;20448;-76
2021/07/18 09:04:07;;;;;;;2.80;2.05;;;29.30;99.90;;;;;;5077864;28;20025;-76
2021/07/18 09:06:44;;;;;;;3.58;2.10;;;29.90;99.90;;;;;;5077692;28;20091;-76
2021/07/18 09:09:13;;;;;;;3.35;2.00;;;30.20;99.90;;;;;;5077204;28;20471;-76
2021/07/18 09:11:39;;;;;;;3.65;1.95;;;29.80;99.90;;;;;;5076258;28;20029;-76
2021/07/18 09:14:07;;;;;;;2.35;1.83;;;29.70;99.90;;;;;;5077354;28;20032;-76
2021/07/18 09:16:37;;;;;;;2.85;1.67;;;30.30;99.90;;;;;;5076121;28;20024;-76
2021/07/18 09:19:29;;;;;;;2.58;1.95;;;30.30;99.90;;;;;;5075593;28;20039;-76
2021/07/18 09:24:51;;;;;;;3.38;2.10;;;29.30;99.90;;;;;;5112239;27;20408;-75
2021/07/18 09:30:10;;;;;;;4.25;1.80;;;28.20;99.90;;;;;;5174039;27;20421;-74
2021/07/18 09:32:40;;;;;;;1.85;1.75;;;29.20;99.90;;;;;;5173921;27;20022;-75
2021/07/18 09:35:12;;;;;;;3.53;2.10;;;29.20;99.90;;;;;;5173582;27;20399;-77
2021/07/18 09:37:43;;;;;;;2.72;1.90;;;29.50;99.90;;;;;;5172413;27;20074;-77
2021/07/18 09:40:14;;;;;;;4.95;1.92;;;29.70;99.90;;;;;;5172013;27;20022;-77
2021/07/18 09:42:47;;;;;;;2.15;1.90;;;30.00;99.90;;;;;;5173790;27;20031;-77
2021/07/18 09:45:15;;;;;;;3.53;1.90;;;30.00;99.90;;;;;;5173781;27;20090;-76
2021/07/18 09:48:02;;;;;;;3.40;1.98;;;30.30;99.90;;;;;;5173542;27;20034;-77
2021/07/18 09:50:38;;;;;;;3.35;1.77;;;30.90;99.00;;;;;;5173610;27;20048;-77
2021/07/18 09:53:16;;;;;;;1.92;1.73;;;30.50;99.90;;;;;;5172147;27;20486;-77
2021/07/18 09:56:00;;;;;;;2.63;1.70;;;30.50;99.90;;;;;;5173524;27;20407;-77
2021/07/18 09:58:27;;;;;;;1.98;1.65;;;31.40;99.50;;;;;;5173430;27;20018;-77
2021/07/18 10:00:53;;;;;;;2.10;1.90;;;31.30;98.70;;;;;;5173403;27;20022;-77
2021/07/18 10:03:23;;;;;;;1.90;1.50;;;30.70;99.80;;;;;;5173082;27;20023;-77
2021/07/18 10:06:12;;;;;;;4.15;1.80;;;31.30;99.90;;;;;;5171875;27;20015;-77
2021/07/18 10:08:40;;;;;;;2.78;1.77;;;31.70;99.30;;;;;;5171654;27;20026;-77
2021/07/18 10:11:09;;;;;;;2.33;1.60;;;31.70;97.50;;;;;;5173219;27;20019;-77
2021/07/18 10:13:37;;;;;;;4.88;1.52;;;31.60;97.10;;;;;;5172953;27;20018;-77
2021/07/18 10:16:03;;;;;;;2.88;1.65;;;31.50;97.60;;;;;;5173115;27;20349;-77
2021/07/18 10:18:29;;;;;;;2.60;1.77;;;31.30;97.40;;;;;;5173034;27;20026;-77
2021/07/18 10:20:56;;;;;;;3.05;1.65;;;31.40;98.10;;;;;;5172795;27;20015;-77
2021/07/18 10:23:24;;;;;;;3.75;2.10;;;31.80;97.90;;;;;;5171520;27;20022;-77
2021/07/18 10:25:51;;;;;;;2.08;1.92;;;31.80;98.10;;;;;;5171188;27;20031;-77
2021/07/18 10:28:17;;;;;;;1.90;1.70;;;31.50;97.30;;;;;;5172445;27;20038;-77
2021/07/18 10:30:46;;;;;;;2.63;1.80;;;32.30;97.60;;;;;;5170993;27;20081;-77
2021/07/18 10:33:16;;;;;;;2.33;2.10;;;31.40;97.40;;;;;;5171386;27;20018;-77
2021/07/18 10:35:44;;;;;;;2.92;2.25;;;29.50;99.90;;;;;;5172203;27;20018;-77
2021/07/18 10:38:15;;;;;;;3.85;1.85;;;30.00;99.70;;;;;;5172690;27;20448;-76
2021/07/18 10:40:53;;;;;;;3.20;1.77;;;30.30;99.10;;;;;;5143609;27;20030;-77
2021/07/18 10:43:46;;;;;;;2.10;1.90;;;30.60;99.20;;;;;;5158714;27;20019;-77
2021/07/18 10:46:14;;;;;;;3.40;1.90;;;31.60;97.70;;;;;;5157137;27;20022;-77
2021/07/18 10:48:45;;;;;;;3.70;2.10;;;30.70;97.80;;;;;;5158249;27;20023;-76
2021/07/18 10:51:12;;;;;;;9.18;1.92;;;30.00;99.30;;;;;;5158570;27;20015;-76
2021/07/18 10:53:38;;;;;;;4.80;1.95;;;30.00;99.90;;;;;;5158511;27;20497;-76
2021/07/18 10:56:05;;;;;;;3.38;2.05;;;29.60;99.90;;;;;;5158172;27;20035;-76
2021/07/18 11:01:35;;;;;;;1.98;1.70;;;29.30;99.90;;;;;;5112249;27;20678;-75
2021/07/18 11:04:01;;;;;;;2.63;2.10;;;29.00;99.90;;;;;;5111879;28;20020;-75
2021/07/18 11:06:30;;;;;;;3.03;2.20;;;29.10;99.90;;;;;;5111866;28;20020;-75
2021/07/18 11:09:18;;;;;;;4.53;2.17;;;29.20;99.90;;;;;;5111513;28;20016;-75
2021/07/18 11:11:49;;;;;;;2.58;1.77;;;28.80;99.90;;;;;;5111163;28;20030;-75
2021/07/18 11:14:34;;;;;;;2.20;2.03;;;28.70;99.90;;;;;;5111444;28;20061;-75
2021/07/18 11:17:02;;;;;;;2.88;2.00;;;28.70;99.90;;;;;;5111271;28;20103;-75
2021/07/18 11:22:13;;;;;;;3.05;2.00;;;28.70;99.90;;;;;;5091816;28;20410;-75
2021/07/18 11:24:56;;;;;;;3.17;1.90;;;28.90;99.90;;;;;;5091525;28;20060;-74
2021/07/18 11:27:27;;;;;;;4.20;2.20;;;29.00;99.90;;;;;;5091398;28;20016;-75
2021/07/18 11:29:55;;;;;;;4.22;2.30;;;28.90;99.90;;;;;;5091385;28;20031;-75
2021/07/18 11:32:24;;;;;;;2.83;2.17;;;29.30;99.90;;;;;;5090888;28;20381;-75
2021/07/18 11:34:50;;;;;;;4.55;1.98;;;28.80;99.90;;;;;;5089875;28;20024;-75
2021/07/18 11:37:16;;;;;;;4.50;2.47;;;28.70;99.90;;;;;;5091312;28;20099;-75
2021/07/18 11:39:43;;;;;;;4.03;2.05;;;29.30;99.90;;;;;;5091292;28;20016;-75
2021/07/18 11:42:12;;;;;;;4.95;2.25;;;29.00;99.90;;;;;;5091266;28;20032;-75
2021/07/18 11:44:41;;;;;;;5.40;2.47;;;29.00;99.90;;;;;;5090938;28;20090;-75
2021/07/18 11:47:11;;;;;;;4.68;2.20;;;29.00;99.90;;;;;;5091132;28;20107;-75
2021/07/18 11:49:39;;;;;;;3.28;2.22;;;28.80;99.90;;;;;;5090815;28;20029;-74
2021/07/18 11:52:07;;;;;;;4.03;2.10;;;29.10;99.90;;;;;;5090430;28;20086;-74
2021/07/18 11:54:33;;;;;;;5.05;2.10;;;28.60;99.90;;;;;;5090952;28;20126;-75
2021/07/18 11:56:59;;;;;;;8.73;2.50;;;28.40;99.90;;;;;;5091222;28;20154;-75
2021/07/18 11:59:28;;;;;;;3.40;1.85;;;28.50;99.90;;;;;;5089069;28;20070;-75
2021/07/18 12:01:54;;;;;;;3.05;2.22;;;29.00;99.90;;;;;;5090450;28;20417;-75
2021/07/18 12:04:23;;;;;;;4.10;1.98;;;29.10;99.90;;;;;;5090835;28;20095;-75
2021/07/18 12:06:50;;;;;;;4.18;2.00;;;29.00;99.90;;;;;;5088960;28;20465;-75
2021/07/18 12:09:22;;;;;;;3.42;2.30;;;29.30;99.90;;;;;;5090722;28;20016;-75
2021/07/18 12:11:49;;;;;;;3.50;2.17;;;29.20;99.90;;;;;;5090663;28;20075;-74
2021/07/18 12:14:16;;;;;;;3.33;2.67;;;29.40;99.90;;;;;;5090618;28;20020;-75
2021/07/18 12:16:44;;;;;;;3.08;2.22;;;29.30;99.90;;;;;;5088770;28;20081;-74
2021/07/18 12:19:11;;;;;;;5.35;2.47;;;28.60;99.90;;;;;;5089988;28;20466;-74
2021/07/18 12:21:39;;;;;;;4.10;2.60;;;28.50;99.90;;;;;;5089753;28;20036;-74
2021/07/18 12:24:33;;;;;;;3.33;2.10;;;29.00;99.90;;;;;;5089862;28;20017;-75
2021/07/18 12:29:45;;;;;;;4.70;2.30;;;29.00;99.90;;;;;;5091781;28;20182;-74
2021/07/18 12:32:11;;;;;;;4.35;2.05;;;29.00;99.90;;;;;;5089991;28;20462;-74
2021/07/18 12:34:40;;;;;;;3.88;2.30;;;29.20;99.90;;;;;;5091438;28;20099;-74
2021/07/18 12:37:09;;;;;;;3.30;2.13;;;29.30;99.90;;;;;;5090174;28;20488;-74
2021/07/18 12:39:40;;;;;;;2.72;2.30;;;29.20;99.90;;;;;;5091364;28;20424;-74
2021/07/18 12:42:11;;;;;;;4.13;2.20;;;28.90;99.90;;;;;;5091084;28;20047;-74
2021/07/18 12:44:45;;;;;;;3.53;2.10;;;29.00;99.90;;;;;;5091289;28;20044;-74
2021/07/18 12:47:34;;;;;;;4.78;2.50;;;29.00;99.90;;;;;;5089626;28;20024;-74
2021/07/18 12:50:35;;;;;;;3.55;2.30;;;29.10;99.90;;;;;;5090933;28;20021;-74
2021/07/18 12:53:14;;;;;;;5.22;2.15;;;29.30;99.90;;;;;;5090575;28;20070;-74
2021/07/18 12:55:44;;;;;;;3.88;2.05;;;29.20;99.90;;;;;;5089410;28;20386;-74